Time;durP1;ratioP1;P1;durP2;ratioP2;P2;SDS_P1;SDS_P2;PMS_P1;PMS_P2;Temp;Humidity;BMP_temperature;BMP_pressure;BME280_temperature;BME280_humidity;BME280_pressure;Samples;Min_cycle;Max_cycle;Signal;HPM_P1;HPM_P2
2021/10/27 00:02:08;;;;;;;27.83;17.13;;;;;;;19.00;100.00;102017.34;5092486;28;20040;-57
2021/10/27 00:04:33;;;;;;;31.40;16.27;;;;;;;18.81;100.00;102024.59;5094088;28;20729;-55
2021/10/27 00:06:59;;;;;;;32.42;16.70;;;;;;;18.97;100.00;102025.88;5093363;28;20405;-53
2021/10/27 00:09:25;;;;;;;27.40;16.63;;;;;;;19.02;100.00;102026.06;5093550;28;20032;-56
2021/10/27 00:11:50;;;;;;;32.40;15.95;;;;;;;19.02;100.00;102022.53;5093257;28;20381;-59
2021/10/27 00:14:16;;;;;;;34.15;16.33;;;;;;;18.59;100.00;102026.84;5092327;28;20090;-56
2021/10/27 00:16:41;;;;;;;26.90;15.30;;;;;;;18.86;100.00;102021.19;5093081;28;20032;-53
2021/10/27 00:19:07;;;;;;;34.63;16.85;;;;;;;19.16;100.00;102015.09;5092994;28;20036;-56
2021/10/27 00:21:33;;;;;;;25.33;15.23;;;;;;;18.95;100.00;102030.72;5092061;28;20111;-55
2021/10/27 00:23:58;;;;;;;33.97;16.45;;;;;;;19.28;100.00;102036.88;5092006;28;20115;-56
2021/10/27 00:26:24;;;;;;;40.78;16.90;;;;;;;19.25;100.00;102024.59;5091977;28;20093;-53
2021/10/27 00:28:51;;;;;;;26.42;16.13;;;;;;;18.98;100.00;102010.44;5096606;28;20036;-57
2021/10/27 00:31:16;;;;;;;32.30;17.43;;;;;;;18.92;100.00;102025.75;5096771;28;20035;-54
2021/10/27 00:33:43;;;;;;;32.87;17.77;;;;;;;19.25;100.00;102024.59;5097502;28;20283;-57
2021/10/27 00:36:10;;;;;;;33.63;17.47;;;;;;;18.79;100.00;102015.81;5095875;28;20362;-54
2021/10/27 00:38:35;;;;;;;34.35;17.92;;;;;;;18.95;100.00;102016.31;5096960;28;20333;-55
2021/10/27 00:41:01;;;;;;;30.00;17.93;;;;;;;18.87;100.00;102004.72;5096769;28;20468;-53
2021/10/27 00:43:26;;;;;;;38.47;17.00;;;;;;;19.18;100.00;102013.00;5097213;28;20288;-54
2021/10/27 00:45:52;;;;;;;29.27;17.05;;;;;;;19.01;100.00;102016.28;5095813;28;20032;-55
2021/10/27 00:48:18;;;;;;;31.15;16.98;;;;;;;18.90;100.00;102019.69;5096724;28;20138;-55
2021/10/27 00:50:43;;;;;;;27.60;15.68;;;;;;;18.86;100.00;102015.75;5096619;28;20060;-56
2021/10/27 00:53:09;;;;;;;28.52;16.17;;;;;;;18.82;100.00;102011.84;5095734;28;20118;-56
2021/10/27 00:55:35;;;;;;;27.60;15.53;;;;;;;18.76;100.00;102022.53;5096863;28;20125;-53
2021/10/27 00:58:00;;;;;;;29.33;15.95;;;;;;;18.81;100.00;102007.47;5096544;28;20276;-56
2021/10/27 01:00:26;;;;;;;29.63;15.02;;;;;;;18.64;100.00;102016.16;5096655;28;20408;-57
2021/10/27 01:02:52;;;;;;;39.65;16.38;;;;;;;18.81;100.00;102012.91;5095477;28;20051;-57
2021/10/27 01:05:17;;;;;;;38.45;17.73;;;;;;;19.21;100.00;102007.13;5078595;28;20177;-53
2021/10/27 01:07:44;;;;;;;29.42;16.60;;;;;;;19.11;100.00;102010.34;5095674;28;20032;-52
2021/10/27 01:10:10;;;;;;;29.02;15.70;;;;;;;19.13;100.00;102020.97;5095083;28;20039;-56
2021/10/27 01:12:36;;;;;;;32.23;15.80;;;;;;;19.04;100.00;102013.13;5096160;28;20020;-56
2021/10/27 01:15:03;;;;;;;28.55;15.30;;;;;;;19.09;100.00;102014.31;5096167;28;20648;-54
2021/10/27 01:17:28;;;;;;;35.13;15.55;;;;;;;19.14;100.00;102017.19;5096347;28;20036;-54
2021/10/27 01:19:56;;;;;;;30.27;16.15;;;;;;;19.08;100.00;102012.66;5096524;28;20511;-53
2021/10/27 01:22:25;;;;;;;27.27;15.70;;;;;;;19.42;100.00;102007.72;5095032;28;20081;-54
2021/10/27 01:24:51;;;;;;;33.87;15.83;;;;;;;19.26;100.00;102018.13;5095378;28;20673;-56
2021/10/27 01:27:17;;;;;;;32.05;14.38;;;;;;;18.99;100.00;102015.69;5096209;28;20327;-56
2021/10/27 01:29:43;;;;;;;27.38;14.40;;;;;;;19.06;100.00;102023.75;5094609;28;20131;-57
2021/10/27 01:32:09;;;;;;;28.33;14.13;;;;;;;19.37;100.00;102015.69;5094976;28;20335;-57
2021/10/27 01:34:36;;;;;;;30.02;15.45;;;;;;;19.48;100.00;102012.25;5094635;28;20469;-56
2021/10/27 01:37:01;;;;;;;25.87;15.53;;;;;;;19.12;100.00;102003.88;5096022;28;20032;-56
2021/10/27 01:39:28;;;;;;;36.75;15.60;;;;;;;18.92;100.00;102006.75;5077381;28;20629;-53
2021/10/27 01:41:54;;;;;;;28.10;15.30;;;;;;;18.77;100.00;102002.50;5095688;28;20040;-54
2021/10/27 01:44:20;;;;;;;21.45;13.90;;;;;;;19.10;100.00;102010.56;5095751;28;20322;-57
2021/10/27 01:46:45;;;;;;;27.58;15.07;;;;;;;19.19;100.00;102007.34;5094378;28;20120;-57
2021/10/27 01:49:12;;;;;;;34.47;14.60;;;;;;;19.34;100.00;102009.66;5095762;28;20040;-54
2021/10/27 01:51:38;;;;;;;;;;;;;;;19.28;100.00;101996.22;5095879;28;20081;-55
2021/10/27 01:54:05;;;;;;;32.87;14.20;;;;;;;19.24;100.00;102006.66;5094144;28;19908;-55
2021/10/27 01:56:31;;;;;;;29.37;13.87;;;;;;;19.48;100.00;102006.81;5094103;28;20031;-56
2021/10/27 01:58:58;;;;;;;25.83;13.38;;;;;;;19.48;100.00;102001.38;5094455;28;20260;-52
2021/10/27 02:01:24;;;;;;;23.92;13.82;;;;;;;19.03;100.00;102005.19;5094191;28;20053;-55
2021/10/27 02:03:50;;;;;;;22.37;13.37;;;;;;;19.30;100.00;102000.34;5077602;28;20044;-50
2021/10/27 02:06:16;;;;;;;23.98;13.02;;;;;;;19.21;100.00;102004.41;5095303;28;20268;-57
2021/10/27 02:08:42;;;;;;;29.30;13.98;;;;;;;19.45;100.00;102005.38;5094550;28;20056;-57
2021/10/27 02:11:09;;;;;;;21.45;11.65;;;;;;;19.14;100.00;102009.91;5095097;28;20036;-50
2021/10/27 02:13:35;;;;;;;20.83;10.82;;;;;;;19.33;100.00;102005.31;5060644;28;20035;-56
2021/10/27 02:16:00;;;;;;;27.35;12.10;;;;;;;19.16;100.00;102004.25;5094041;28;20480;-56
2021/10/27 02:18:26;;;;;;;27.45;11.48;;;;;;;19.25;100.00;102008.31;5095169;28;20111;-56
2021/10/27 02:20:52;;;;;;;25.05;11.35;;;;;;;19.25;100.00;102011.03;5093826;28;20028;-55
2021/10/27 02:23:22;;;;;;;23.53;11.23;;;;;;;19.20;100.00;102005.47;5095114;28;20457;-55
2021/10/27 02:25:48;;;;;;;23.38;10.93;;;;;;;18.47;100.00;102007.75;5095536;28;20360;-55
2021/10/27 02:28:13;;;;;;;25.07;10.63;;;;;;;18.60;100.00;102006.81;5094779;28;20039;-56
2021/10/27 02:30:39;;;;;;;42.08;9.98;;;;;;;18.62;100.00;102004.72;5093663;28;20275;-57
2021/10/27 02:33:05;;;;;;;22.30;11.10;;;;;;;18.65;100.00;101998.84;5095246;28;20082;-56
2021/10/27 02:35:31;;;;;;;21.73;9.40;;;;;;;18.77;100.00;101994.38;5094934;28;20040;-55
2021/10/27 02:37:57;;;;;;;23.67;9.88;;;;;;;18.60;100.00;101995.97;5077200;28;20505;-53
2021/10/27 02:40:23;;;;;;;16.17;8.63;;;;;;;18.51;100.00;102000.03;5077508;28;20036;-53
2021/10/27 02:42:48;;;;;;;23.25;9.15;;;;;;;18.54;100.00;101997.69;5076695;28;20036;-54
2021/10/27 02:45:15;;;;;;;26.38;9.48;;;;;;;18.46;100.00;102001.53;5094340;28;20489;-57
2021/10/27 02:47:42;;;;;;;;;;;;;;;18.54;100.00;101989.56;5095692;28;20086;-50
2021/10/27 02:50:09;;;;;;;20.10;7.43;;;;;;;18.39;100.00;101989.06;5093198;28;19957;-51
2021/10/27 02:52:35;;;;;;;24.13;9.03;;;;;;;18.70;100.00;101993.63;5095298;28;20278;-50
2021/10/27 02:55:01;;;;;;;17.05;7.78;;;;;;;18.59;100.00;101994.31;5093094;28;20340;-53
2021/10/27 02:57:27;;;;;;;18.85;7.40;;;;;;;18.84;100.00;101988.06;5076781;28;20070;-50
2021/10/27 02:59:52;;;;;;;23.23;7.82;;;;;;;18.53;100.00;101987.91;5093250;28;20418;-53
2021/10/27 03:02:18;;;;;;;17.77;8.07;;;;;;;18.69;100.00;102000.09;5093456;28;20046;-50
2021/10/27 03:04:43;;;;;;;29.63;9.90;;;;;;;18.68;100.00;102005.72;5093227;28;20480;-52
2021/10/27 03:07:09;;;;;;;19.10;8.77;;;;;;;18.92;100.00;101998.63;5094141;28;20389;-54
2021/10/27 03:09:34;;;;;;;19.77;7.37;;;;;;;18.30;100.00;101996.63;5093956;28;20114;-54
2021/10/27 03:12:01;;;;;;;16.70;6.97;;;;;;;18.57;100.00;101993.72;5094253;28;20040;-49
2021/10/27 03:14:28;;;;;;;;;;;;;;;18.35;100.00;101999.50;5093809;28;20028;-51
2021/10/27 03:16:54;;;;;;;11.15;5.60;;;;;;;18.26;100.00;101993.53;5094587;28;20265;-53
2021/10/27 03:19:19;;;;;;;18.45;5.97;;;;;;;18.37;100.00;101992.00;5076532;28;20039;-51
2021/10/27 03:21:44;;;;;;;17.08;6.45;;;;;;;18.26;100.00;101998.13;5093225;28;20082;-55
2021/10/27 03:24:10;;;;;;;16.60;6.40;;;;;;;18.76;100.00;102003.56;5093802;28;20365;-53
2021/10/27 03:26:35;;;;;;;18.73;6.25;;;;;;;18.58;100.00;101998.09;5093207;28;20378;-52
2021/10/27 03:29:01;;;;;;;20.80;6.38;;;;;;;18.86;100.00;101996.78;5093492;28;20365;-56
2021/10/27 03:31:26;;;;;;;13.90;5.18;;;;;;;18.59;100.00;102011.41;5093714;28;20032;-54
2021/10/27 03:33:52;;;;;;;27.33;4.80;;;;;;;18.73;100.00;102006.72;5092872;28;20043;-52
2021/10/27 03:36:18;;;;;;;13.88;4.75;;;;;;;19.27;100.00;102003.50;5075776;28;20055;-49
2021/10/27 03:38:43;;;;;;;11.85;4.60;;;;;;;19.16;100.00;102009.69;5093133;28;20483;-52
2021/10/27 03:41:09;;;;;;;12.55;4.03;;;;;;;19.13;100.00;102010.09;5076018;28;20047;-57
2021/10/27 03:43:35;;;;;;;14.93;4.28;;;;;;;19.36;100.00;102012.16;5092191;28;20131;-59
2021/10/27 03:46:00;;;;;;;15.80;4.20;;;;;;;19.24;100.00;102014.81;5092794;28;20032;-55
2021/10/27 03:48:26;;;;;;;13.95;4.22;;;;;;;19.26;100.00;102009.97;5092802;28;20381;-57
2021/10/27 03:50:52;;;;;;;9.18;4.20;;;;;;;19.38;100.00;102009.25;5094359;28;20036;-57
2021/10/27 03:53:17;;;;;;;10.93;3.85;;;;;;;19.00;100.00;102017.34;5075817;28;20032;-57
2021/10/27 03:55:43;;;;;;;12.07;3.72;;;;;;;19.22;100.00;102006.06;5093304;28;20032;-57
2021/10/27 03:58:09;;;;;;;11.68;3.92;;;;;;;19.08;100.00;102007.25;5093857;28;20119;-52
2021/10/27 04:00:37;;;;;;;8.57;3.38;;;;;;;19.09;100.00;102007.03;5092251;28;20107;-51
2021/10/27 04:03:03;;;;;;;16.33;5.50;;;;;;;19.14;100.00;102009.06;5095129;28;20453;-53
2021/10/27 04:05:29;;;;;;;21.38;8.77;;;;;;;19.28;100.00;102007.88;5063128;28;20280;-52
2021/10/27 04:07:54;;;;;;;18.40;8.32;;;;;;;19.19;100.00;102014.66;5096864;28;20036;-54
2021/10/27 04:10:20;;;;;;;17.10;5.05;;;;;;;19.04;100.00;102021.25;5097625;28;20043;-56
2021/10/27 04:12:45;;;;;;;8.60;3.87;;;;;;;18.85;100.00;102008.69;5097372;28;20524;-56
2021/10/27 04:15:12;;;;;;;14.30;3.93;;;;;;;18.85;100.00;102009.53;5096402;28;20295;-56
2021/10/27 04:17:39;;;;;;;9.40;3.60;;;;;;;19.34;100.00;102006.97;5097250;28;20275;-54
2021/10/27 04:20:06;;;;;;;17.40;4.17;;;;;;;18.97;100.00;102006.91;5098297;28;20473;-54
2021/10/27 04:22:33;;;;;;;13.20;3.87;;;;;;;19.13;100.00;102004.69;5097158;28;20248;-57
2021/10/27 04:24:59;;;;;;;12.03;3.73;;;;;;;19.08;100.00;102008.09;5097316;28;20271;-57
2021/10/27 04:27:24;;;;;;;11.50;3.72;;;;;;;19.05;100.00;102008.53;5097092;28;20336;-57
2021/10/27 04:29:50;;;;;;;9.38;4.38;;;;;;;19.19;100.00;102012.75;5096088;28;20058;-56
2021/10/27 04:32:16;;;;;;;9.60;4.15;;;;;;;19.09;100.00;102009.75;5079320;28;20039;-52
2021/10/27 04:34:41;;;;;;;15.45;5.07;;;;;;;19.23;100.00;102010.44;5096451;28;20449;-56
2021/10/27 04:37:09;;;;;;;15.38;4.75;;;;;;;18.91;100.00;102007.78;5096002;28;20472;-55
2021/10/27 04:39:35;;;;;;;19.50;4.60;;;;;;;19.30;100.00;102021.22;5096471;28;20111;-55
2021/10/27 04:42:00;;;;;;;14.13;4.65;;;;;;;19.20;100.00;102019.03;5097233;28;20249;-52
2021/10/27 04:44:27;;;;;;;13.82;3.90;;;;;;;19.39;100.00;102019.03;5095947;28;20401;-54
2021/10/27 04:46:52;;;;;;;9.82;3.42;;;;;;;19.20;100.00;102021.72;5096751;28;20123;-54
2021/10/27 04:49:17;;;;;;;14.52;4.15;;;;;;;19.08;100.00;102016.22;5095593;28;20063;-50
2021/10/27 04:51:43;;;;;;;18.53;4.60;;;;;;;19.37;100.00;102021.13;5078870;28;20032;-49
2021/10/27 04:54:09;;;;;;;14.45;5.40;;;;;;;19.46;100.00;102025.22;5095506;28;20047;-52
2021/10/27 04:56:34;;;;;;;13.68;3.60;;;;;;;19.55;100.00;102018.41;5096466;28;20035;-55
2021/10/27 04:59:00;;;;;;;13.18;4.15;;;;;;;19.16;100.00;102021.34;5095382;28;20028;-54
2021/10/27 05:01:26;;;;;;;9.50;4.13;;;;;;;19.07;100.00;102020.00;5095240;28;20120;-52
2021/10/27 05:03:52;;;;;;;13.85;5.13;;;;;;;19.15;100.00;102024.28;5095496;28;20040;-50
2021/10/27 05:06:19;;;;;;;22.77;5.03;;;;;;;19.37;100.00;102021.13;5095697;28;20484;-55
2021/10/27 05:08:46;;;;;;;13.30;4.10;;;;;;;19.20;100.00;102016.31;5096247;28;20479;-50
2021/10/27 05:11:12;;;;;;;21.90;4.50;;;;;;;19.11;100.00;102023.06;5097134;28;20582;-54
2021/10/27 05:13:37;;;;;;;8.80;4.18;;;;;;;19.10;100.00;102013.28;5095137;28;20275;-51
2021/10/27 05:16:03;;;;;;;14.10;4.00;;;;;;;19.27;100.00;102003.50;5095279;28;20111;-55
2021/10/27 05:18:29;;;;;;;10.82;3.67;;;;;;;19.06;100.00;102018.34;5096968;28;20347;-55
2021/10/27 05:20:54;;;;;;;12.37;4.30;;;;;;;19.06;100.00;102015.63;5096084;28;20342;-55
2021/10/27 05:23:20;;;;;;;17.45;4.18;;;;;;;19.24;100.00;102005.81;5096225;28;20287;-50
2021/10/27 05:25:46;;;;;;;8.32;3.80;;;;;;;19.15;100.00;102018.88;5096406;28;20031;-51
2021/10/27 05:28:11;;;;;;;11.68;3.80;;;;;;;18.98;100.00;102014.03;5077747;28;20039;-58
2021/10/27 05:30:37;;;;;;;8.68;3.40;;;;;;;18.81;100.00;102018.31;5095801;28;20028;-56
2021/10/27 05:33:03;;;;;;;10.82;3.90;;;;;;;18.96;100.00;102016.09;5096081;28;20109;-55
2021/10/27 05:35:30;;;;;;;15.98;4.22;;;;;;;19.22;100.00;102021.50;5096064;28;20351;-50
2021/10/27 05:37:56;;;;;;;11.27;4.30;;;;;;;19.14;100.00;102019.91;5096370;28;20044;-56
2021/10/27 05:40:23;;;;;;;15.13;4.28;;;;;;;19.17;100.00;102017.56;5095647;28;20296;-50
2021/10/27 05:42:49;;;;;;;11.80;3.90;;;;;;;18.70;100.00;102022.56;5095738;28;20089;-56
2021/10/27 05:45:15;;;;;;;12.70;4.23;;;;;;;19.05;100.00;102019.38;5095653;28;20272;-50
2021/10/27 05:47:50;;;;;;;12.10;4.85;;;;;;;18.99;100.00;102012.97;5095348;28;20268;-57
2021/10/27 05:50:34;;;;;;;11.13;4.33;;;;;;;18.75;100.00;102020.03;5095541;28;20036;-56
2021/10/27 05:55:44;;;;;;;14.43;5.30;;;;;;;18.87;100.00;102023.69;5096288;28;20265;-51
2021/10/27 05:58:11;;;;;;;16.85;5.22;;;;;;;19.10;100.00;102026.84;5094071;28;20268;-50
2021/10/27 06:00:38;;;;;;;19.37;4.97;;;;;;;18.90;100.00;102031.38;5095453;28;20039;-53
2021/10/27 06:03:03;;;;;;;16.53;6.10;;;;;;;18.70;100.00;102022.56;5095077;28;20256;-57
2021/10/27 06:05:29;;;;;;;17.25;5.40;;;;;;;18.81;100.00;102034.56;5095166;28;20046;-55
2021/10/27 06:07:55;;;;;;;16.92;5.00;;;;;;;18.98;100.00;102045.69;5094139;28;20081;-50
2021/10/27 06:10:22;;;;;;;17.45;4.85;;;;;;;18.91;100.00;102040.31;5077271;28;20031;-55
2021/10/27 06:12:52;;;;;;;;;;;;;;;18.68;100.00;102036.34;5094241;28;20050;-54
2021/10/27 06:15:19;;;;;;;13.73;5.17;;;;;;;18.82;100.00;102044.38;5095327;28;20276;-53
2021/10/27 06:17:46;;;;;;;13.57;5.47;;;;;;;18.51;100.00;102043.38;5093636;28;20308;-56
2021/10/27 06:20:12;;;;;;;16.60;5.78;;;;;;;18.90;100.00;102054.91;5093632;28;20272;-56
2021/10/27 06:22:38;;;;;;;15.73;4.85;;;;;;;18.72;100.00;102044.84;5095088;28;20089;-53
2021/10/27 06:25:07;;;;;;;13.10;4.85;;;;;;;18.89;100.00;102045.97;5094672;28;20032;-53
2021/10/27 06:27:34;;;;;;;13.77;6.13;;;;;;;18.52;100.00;102053.97;5094177;28;20036;-52
2021/10/27 06:30:10;;;;;;;16.17;5.90;;;;;;;18.65;100.00;102055.75;5093475;28;20287;-54
2021/10/27 06:35:21;;;;;;;15.93;5.87;;;;;;;18.87;100.00;102049.94;5078883;28;20093;-54
2021/10/27 06:48:25;;;;;;;20.33;9.30;;;;;;;18.89;100.00;102058.69;5094320;28;20257;-53
2021/10/27 06:50:50;;;;;;;22.87;10.37;;;;;;;18.88;100.00;102068.72;5093167;28;20261;-54
2021/10/27 06:53:16;;;;;;;19.00;10.23;;;;;;;18.57;100.00;102077.69;5093464;28;20276;-56
2021/10/27 06:55:41;;;;;;;19.48;8.90;;;;;;;18.59;100.00;102070.19;5093328;28;20119;-52
2021/10/27 06:58:10;;;;;;;19.45;7.25;;;;;;;18.61;100.00;102068.91;5076756;28;20040;-56
2021/10/27 07:16:12;;;;;;;20.47;8.47;;;;;;;18.45;100.00;102096.53;5093584;28;20261;-52
2021/10/27 07:18:37;;;;;;;22.45;7.88;;;;;;;18.30;100.00;102091.41;5093616;28;20264;-53
2021/10/27 07:21:03;;;;;;;20.10;10.35;;;;;;;18.33;100.00;102109.91;5092880;28;20040;-56
2021/10/27 07:23:29;;;;;;;19.40;8.00;;;;;;;18.51;100.00;102106.47;5093671;28;20423;-52
2021/10/27 07:25:59;;;;;;;21.08;8.88;;;;;;;18.54;100.00;102111.47;5093577;28;20478;-51
2021/10/27 07:28:30;;;;;;;23.03;10.53;;;;;;;18.86;100.00;102099.78;5093749;28;20032;-51
2021/10/27 07:30:58;;;;;;;31.33;12.17;;;;;;;18.59;100.00;102118.94;5093761;28;20280;-50
2021/10/27 07:33:26;;;;;;;19.17;9.50;;;;;;;19.20;100.00;102122.88;5093722;28;20263;-53
2021/10/27 07:36:08;;;;;;;15.93;8.30;;;;;;;18.83;100.00;102109.19;5093589;28;20264;-52
2021/10/27 07:41:19;;;;;;;18.80;7.63;;;;;;;18.39;100.00;102117.16;5093755;28;20633;-57
2021/10/27 07:43:45;;;;;;;24.15;8.05;;;;;;;18.91;100.00;102122.47;5093244;28;20282;-59
2021/10/27 07:46:11;;;;;;;16.50;6.80;;;;;;;19.08;100.00;102126.53;5093870;28;20032;-57
2021/10/27 07:48:36;;;;;;;17.83;7.15;;;;;;;18.53;100.00;102127.94;5093309;28;20462;-57
2021/10/27 07:51:02;;;;;;;21.30;7.07;;;;;;;18.48;100.00;102124.00;5075464;28;20375;-56
2021/10/27 07:53:30;;;;;;;17.63;7.88;;;;;;;18.62;100.00;102124.75;5093486;28;20032;-56
2021/10/27 07:55:56;;;;;;;25.97;8.00;;;;;;;18.59;100.00;102129.78;5093397;28;20028;-57
2021/10/27 07:58:22;;;;;;;18.58;8.18;;;;;;;18.81;100.00;102132.13;5093290;28;20292;-55
2021/10/27 08:00:52;;;;;;;15.37;7.60;;;;;;;18.84;100.00;102140.66;5093104;28;20028;-57
2021/10/27 08:03:18;;;;;;;17.70;7.10;;;;;;;18.98;100.00;102136.00;5093182;28;20268;-53
2021/10/27 08:05:44;;;;;;;;;;;;;;;19.03;100.00;102140.75;5093290;28;20363;-55
2021/10/27 08:08:13;;;;;;;16.73;7.30;;;;;;;19.44;100.00;102141.25;5093283;28;19916;-50
2021/10/27 08:10:39;;;;;;;16.33;7.60;;;;;;;19.60;100.00;102128.97;5093131;28;20248;-55
2021/10/27 08:13:05;;;;;;;;;;;;;;;20.30;100.00;102143.25;5091526;28;20276;-56
2021/10/27 08:15:32;;;;;;;24.97;8.40;;;;;;;20.43;100.00;102156.63;5091745;28;19998;-53
2021/10/27 08:17:59;;;;;;;20.60;7.77;;;;;;;20.66;100.00;102149.63;5092731;28;20044;-54
2021/10/27 08:20:28;;;;;;;19.90;7.73;;;;;;;20.46;100.00;102161.59;5093238;28;20019;-52
2021/10/27 08:22:59;;;;;;;20.50;7.97;;;;;;;20.10;100.00;102155.19;5093014;28;20059;-55
2021/10/27 08:25:30;;;;;;;15.23;7.50;;;;;;;20.13;100.00;102170.19;5092979;28;20377;-56
2021/10/27 08:28:06;;;;;;;21.17;7.63;;;;;;;21.10;100.00;102148.56;5092870;28;20462;-56
2021/10/27 08:30:37;;;;;;;19.60;7.90;;;;;;;21.75;100.00;102149.53;5092334;28;20135;-56
2021/10/27 08:33:20;;;;;;;17.10;8.25;;;;;;;21.65;100.00;102152.88;5093529;28;20275;-55
2021/10/27 08:35:46;;;;;;;;;;;;;;;21.52;100.00;102158.50;5093148;28;20032;-57
2021/10/27 08:38:11;;;;;;;14.30;7.57;;;;;;;22.01;100.00;102166.41;5093129;28;19916;-60
2021/10/27 08:40:37;;;;;;;11.05;7.50;;;;;;;22.31;100.00;102160.75;5091939;28;20418;-55
2021/10/27 08:43:03;;;;;;;13.18;7.43;;;;;;;21.72;100.00;102159.00;5091630;28;20114;-56
2021/10/27 08:45:28;;;;;;;18.63;7.78;;;;;;;22.11;100.00;102163.88;5091322;28;20127;-57
2021/10/27 08:47:55;;;;;;;16.58;7.50;;;;;;;22.24;100.00;102154.59;5091594;28;20079;-56
2021/10/27 08:50:24;;;;;;;14.93;7.13;;;;;;;21.80;100.00;102163.25;5096191;28;20485;-55
2021/10/27 08:52:49;;;;;;;17.30;8.03;;;;;;;21.12;100.00;102170.91;5096494;28;20458;-54
2021/10/27 08:55:16;;;;;;;11.93;6.88;;;;;;;21.69;100.00;102172.28;5078331;28;20039;-59
2021/10/27 08:57:45;;;;;;;20.93;8.40;;;;;;;22.90;100.00;102164.28;5096182;28;20039;-54
2021/10/27 09:03:01;;;;;;;14.73;8.10;;;;;;;22.77;100.00;102163.53;5096569;28;20036;-57
2021/10/27 09:06:14;;;;;;;19.38;8.98;;;;;;;23.01;100.00;102168.03;5095951;28;20069;-52
2021/10/27 09:44:06;;;;;;;13.33;8.43;;;;;;;24.95;85.52;102176.50;5095162;28;20077;-52
2021/10/27 09:47:02;;;;;;;19.93;9.00;;;;;;;25.00;83.93;102176.53;5095340;28;20040;-53
2021/10/27 10:06:17;;;;;;;10.33;6.67;;;;;;;25.58;71.90;102173.97;5094946;28;20089;-56
2021/10/27 10:08:45;;;;;;;17.07;7.83;;;;;;;25.24;77.85;102174.28;5094947;28;20085;-54
2021/10/27 10:11:14;;;;;;;12.03;7.03;;;;;;;25.32;77.19;102186.66;5093468;28;20180;-51
2021/10/27 10:13:39;;;;;;;16.07;8.70;;;;;;;26.00;71.96;102174.16;5094794;28;20049;-55
2021/10/27 10:16:09;;;;;;;16.17;8.05;;;;;;;25.62;73.73;102174.25;5094809;28;20462;-51
2021/10/27 10:18:36;;;;;;;14.43;7.60;;;;;;;25.66;74.00;102183.59;5094409;28;20036;-55
2021/10/27 10:21:03;;;;;;;13.13;6.67;;;;;;;26.18;68.74;102168.22;5093461;28;20040;-52
2021/10/27 10:23:28;;;;;;;15.03;6.70;;;;;;;26.16;68.58;102183.25;5094380;28;20024;-53
2021/10/27 10:26:01;;;;;;;10.63;6.18;;;;;;;26.12;68.89;102183.00;5094821;28;20339;-58
2021/10/27 10:28:36;;;;;;;14.80;5.63;;;;;;;27.38;62.20;102182.03;5094439;28;20032;-51
2021/10/27 10:31:02;;;;;;;11.37;5.60;;;;;;;26.95;62.10;102191.41;5094832;28;20072;-53
2021/10/27 10:33:43;;;;;;;12.57;5.67;;;;;;;25.46;73.93;102189.75;5094600;28;20035;-51
2021/10/27 10:36:23;;;;;;;15.87;5.17;;;;;;;26.10;66.93;102189.81;5094467;28;20039;-55
2021/10/27 10:39:03;;;;;;;16.40;6.13;;;;;;;24.49;79.35;102186.72;5094471;28;20389;-55
2021/10/27 11:11:50;;;;;;;12.77;5.40;;;;;;;22.51;100.00;102203.16;5093543;28;20476;-53
2021/10/27 11:22:30;;;;;;;9.83;5.60;;;;;;;22.30;100.00;102180.06;5093553;28;20040;-50
2021/10/27 11:25:05;;;;;;;11.80;5.70;;;;;;;22.13;100.00;102180.81;5094002;28;20400;-51
2021/10/27 11:42:11;;;;;;;11.23;5.67;;;;;;;23.51;93.46;102165.53;5092675;28;20074;-50
2021/10/27 11:47:40;;;;;;;15.77;6.87;;;;;;;23.11;99.53;102167.38;5084475;28;20068;-55
2021/10/27 11:50:09;;;;;;;15.67;6.60;;;;;;;23.57;94.15;102159.06;5093455;28;20040;-54
2021/10/27 11:52:39;;;;;;;12.10;6.17;;;;;;;23.58;89.75;102167.00;5093673;28;20081;-57
2021/10/27 11:55:08;;;;;;;20.37;7.03;;;;;;;23.58;93.46;102160.72;5093179;28;20044;-58
2021/10/27 11:57:38;;;;;;;14.43;6.60;;;;;;;23.84;88.39;102152.84;5092769;28;20065;-54
2021/10/27 12:00:49;;;;;;;15.57;6.40;;;;;;;23.32;93.96;102163.91;5093116;28;20040;-55
2021/10/27 12:03:21;;;;;;;12.23;6.57;;;;;;;23.39;96.81;102146.53;5093789;28;20051;-53
2021/10/27 12:06:01;;;;;;;12.17;7.07;;;;;;;23.04;99.07;102143.78;5092131;28;20454;-57
2021/10/27 12:08:35;;;;;;;15.47;6.20;;;;;;;24.20;87.36;102137.75;5093482;28;20060;-60
2021/10/27 12:19:02;;;;;;;9.95;5.47;;;;;;;22.76;93.41;102134.59;5092303;28;20044;-56
2021/10/27 12:21:29;;;;;;;10.57;6.23;;;;;;;22.85;94.05;102126.84;5093062;28;20023;-55
2021/10/27 12:23:55;;;;;;;11.60;7.07;;;;;;;23.24;94.53;102117.91;5094085;28;20044;-57
2021/10/27 12:26:23;;;;;;;;;;;;;;;23.70;88.12;102122.38;5096711;28;20024;-57
2021/10/27 12:29:09;;;;;;;15.00;7.03;;;;;;;23.77;88.90;102123.84;5097715;28;19908;-53
2021/10/27 12:31:35;;;;;;;14.83;6.30;;;;;;;23.72;89.71;102117.47;5096846;28;20071;-51
2021/10/27 12:34:01;;;;;;;12.32;6.78;;;;;;;24.19;84.91;102118.88;5095779;28;20515;-57
2021/10/27 12:36:29;;;;;;;12.70;6.53;;;;;;;24.80;80.07;102111.53;5096686;28;20032;-57
2021/10/27 12:39:23;;;;;;;11.07;6.00;;;;;;;25.84;71.04;102118.47;5096958;28;20461;-53
2021/10/27 12:42:06;;;;;;;15.70;6.03;;;;;;;25.08;69.55;102125.97;5095269;28;20112;-57
2021/10/27 12:44:35;;;;;;;10.33;6.13;;;;;;;24.74;74.00;102100.53;5096629;28;20044;-53
2021/10/27 12:47:22;;;;;;;10.67;5.63;;;;;;;24.90;72.16;102104.25;5095344;28;20041;-57
2021/10/27 12:50:01;;;;;;;9.48;5.07;;;;;;;25.77;68.46;102107.75;5096694;28;20566;-53
2021/10/27 12:52:33;;;;;;;7.70;4.37;;;;;;;26.62;60.29;102103.03;5097345;28;20040;-55
2021/10/27 12:55:10;;;;;;;6.70;4.17;;;;;;;26.86;58.28;102086.84;5096847;28;20032;-56
2021/10/27 12:58:11;;;;;;;11.20;4.23;;;;;;;26.01;60.91;102099.91;5096429;28;20373;-56
2021/10/27 13:00:49;;;;;;;12.10;3.93;;;;;;;26.09;61.24;102093.06;5096203;28;20117;-53
2021/10/27 13:11:19;;;;;;;7.68;4.85;;;;;;;24.82;70.36;102087.50;5095954;28;20462;-57
2021/10/27 13:22:10;;;;;;;12.20;5.10;;;;;;;24.16;76.42;102070.22;5095717;28;20097;-56
2021/10/27 13:30:03;;;;;;;9.67;4.40;;;;;;;24.82;69.82;102066.44;5094790;28;20074;-58
2021/10/27 13:32:31;;;;;;;11.73;4.57;;;;;;;24.87;70.08;102065.63;5095145;28;20032;-54
2021/10/27 13:34:56;;;;;;;11.47;5.13;;;;;;;24.67;72.82;102063.56;5093043;28;20028;-56
2021/10/27 13:37:24;;;;;;;8.70;4.38;;;;;;;25.81;66.32;102059.56;5077272;28;20036;-57
2021/10/27 13:39:52;;;;;;;9.20;5.17;;;;;;;27.03;57.82;102067.34;5095449;28;20507;-56
2021/10/27 13:42:25;;;;;;;9.30;5.20;;;;;;;26.75;57.21;102068.72;5094071;28;20119;-55
2021/10/27 14:06:24;;;;;;;9.70;4.23;;;;;;;28.08;49.22;102060.31;5094486;28;20461;-54
2021/10/27 14:11:26;;;;;;;;;;;;;;;27.83;46.98;102064.84;5095491;28;20406;-56
2021/10/27 14:13:59;;;;;;;8.03;3.90;;;;;;;27.30;47.99;102059.84;5095320;28;19915;-57
2021/10/27 15:21:26;;;;;;;12.93;5.80;;;;;;;27.91;48.84;102017.56;5074075;28;20051;-60
2021/10/27 15:41:51;;;;;;;9.87;4.70;;;;;;;25.96;59.93;102004.00;5092571;28;20040;-56
2021/10/27 15:52:23;;;;;;;12.70;5.10;;;;;;;24.98;69.34;101992.66;5091769;28;20047;-54
2021/10/27 15:54:49;;;;;;;15.60;5.57;;;;;;;24.87;71.10;101998.09;5093044;28;20140;-58
2021/10/27 15:57:14;;;;;;;14.57;5.97;;;;;;;24.65;74.55;102005.56;5092116;28;20069;-57
2021/10/27 15:59:43;;;;;;;16.98;6.28;;;;;;;24.47;77.10;102003.00;5092935;28;20066;-56
2021/10/27 16:02:09;;;;;;;13.53;5.57;;;;;;;24.24;79.81;102003.34;5091882;28;20044;-56
2021/10/27 16:04:37;;;;;;;15.07;5.90;;;;;;;24.17;80.96;102006.28;5093280;28;20346;-57
2021/10/27 16:07:06;;;;;;;12.77;5.77;;;;;;;24.12;82.67;102007.06;5093014;28;20127;-58